sensor_id;sensor_type;location;lat;lon;timestamp;P1;durP1;ratioP1;P2;durP2;ratioP2
30096;SDS011;16915;51.466;3.610;2023-04-06T00:01:12;39.63;;;23.20;;
30096;SDS011;16915;51.466;3.610;2023-04-06T00:03:38;36.95;;;22.90;;
30096;SDS011;16915;51.466;3.610;2023-04-06T00:06:03;38.58;;;23.13;;
30096;SDS011;16915;51.466;3.610;2023-04-06T00:08:29;39.30;;;24.45;;
30096;SDS011;16915;51.466;3.610;2023-04-06T00:10:55;35.58;;;22.73;;
30096;SDS011;16915;51.466;3.610;2023-04-06T00:13:20;40.45;;;24.02;;
30096;SDS011;16915;51.466;3.610;2023-04-06T00:15:46;36.00;;;23.52;;
30096;SDS011;16915;51.466;3.610;2023-04-06T00:18:12;39.47;;;23.30;;
30096;SDS011;16915;51.466;3.610;2023-04-06T00:20:37;37.88;;;23.88;;
30096;SDS011;16915;51.466;3.610;2023-04-06T00:23:03;37.47;;;22.90;;
30096;SDS011;16915;51.466;3.610;2023-04-06T00:25:29;35.63;;;22.25;;
30096;SDS011;16915;51.466;3.610;2023-04-06T00:27:55;35.85;;;23.02;;
30096;SDS011;16915;51.466;3.610;2023-04-06T00:30:20;39.80;;;24.08;;
30096;SDS011;16915;51.466;3.610;2023-04-06T00:32:46;36.45;;;22.30;;
30096;SDS011;16915;51.466;3.610;2023-04-06T00:35:11;40.50;;;23.40;;
30096;SDS011;16915;51.466;3.610;2023-04-06T00:37:37;38.00;;;23.08;;
30096;SDS011;16915;51.466;3.610;2023-04-06T00:40:03;37.85;;;23.63;;
30096;SDS011;16915;51.466;3.610;2023-04-06T00:42:28;45.30;;;23.85;;
30096;SDS011;16915;51.466;3.610;2023-04-06T00:44:55;37.53;;;23.45;;
30096;SDS011;16915;51.466;3.610;2023-04-06T00:47:22;36.30;;;23.23;;
30096;SDS011;16915;51.466;3.610;2023-04-06T00:49:49;39.00;;;23.73;;
30096;SDS011;16915;51.466;3.610;2023-04-06T00:52:15;38.97;;;23.63;;
30096;SDS011;16915;51.466;3.610;2023-04-06T00:54:41;43.08;;;25.02;;
30096;SDS011;16915;51.466;3.610;2023-04-06T00:57:06;41.22;;;23.95;;
30096;SDS011;16915;51.466;3.610;2023-04-06T00:59:32;41.85;;;24.70;;
30096;SDS011;16915;51.466;3.610;2023-04-06T01:01:58;39.70;;;24.35;;
30096;SDS011;16915;51.466;3.610;2023-04-06T01:04:23;41.83;;;23.77;;
30096;SDS011;16915;51.466;3.610;2023-04-06T01:06:49;39.15;;;23.60;;
30096;SDS011;16915;51.466;3.610;2023-04-06T01:09:16;39.72;;;25.25;;
30096;SDS011;16915;51.466;3.610;2023-04-06T01:11:42;40.40;;;23.92;;
30096;SDS011;16915;51.466;3.610;2023-04-06T01:14:07;46.20;;;25.73;;
30096;SDS011;16915;51.466;3.610;2023-04-06T01:16:33;40.25;;;24.98;;
30096;SDS011;16915;51.466;3.610;2023-04-06T01:18:59;41.88;;;25.85;;
30096;SDS011;16915;51.466;3.610;2023-04-06T01:21:25;42.88;;;25.95;;
30096;SDS011;16915;51.466;3.610;2023-04-06T01:23:50;44.85;;;26.25;;
30096;SDS011;16915;51.466;3.610;2023-04-06T01:26:16;46.35;;;26.35;;
30096;SDS011;16915;51.466;3.610;2023-04-06T01:28:41;51.92;;;29.20;;
30096;SDS011;16915;51.466;3.610;2023-04-06T01:31:09;55.95;;;30.08;;
30096;SDS011;16915;51.466;3.610;2023-04-06T01:33:35;57.30;;;31.58;;
30096;SDS011;16915;51.466;3.610;2023-04-06T01:36:01;53.35;;;30.83;;
30096;SDS011;16915;51.466;3.610;2023-04-06T01:38:27;52.40;;;30.60;;
30096;SDS011;16915;51.466;3.610;2023-04-06T01:40:53;57.85;;;31.67;;
30096;SDS011;16915;51.466;3.610;2023-04-06T01:43:19;59.83;;;32.42;;
30096;SDS011;16915;51.466;3.610;2023-04-06T01:45:44;60.72;;;33.63;;
30096;SDS011;16915;51.466;3.610;2023-04-06T01:48:10;61.42;;;33.40;;
30096;SDS011;16915;51.466;3.610;2023-04-06T01:50:36;54.65;;;31.42;;
30096;SDS011;16915;51.466;3.610;2023-04-06T01:53:01;61.00;;;33.22;;
30096;SDS011;16915;51.466;3.610;2023-04-06T01:55:27;56.55;;;30.73;;
30096;SDS011;16915;51.466;3.610;2023-04-06T01:57:52;56.08;;;31.55;;
30096;SDS011;16915;51.466;3.610;2023-04-06T02:00:18;55.10;;;31.63;;
30096;SDS011;16915;51.466;3.610;2023-04-06T02:02:44;54.88;;;30.70;;
30096;SDS011;16915;51.466;3.610;2023-04-06T02:05:10;54.95;;;29.95;;
30096;SDS011;16915;51.466;3.610;2023-04-06T02:07:35;53.85;;;30.00;;
30096;SDS011;16915;51.466;3.610;2023-04-06T02:10:02;58.58;;;30.63;;
30096;SDS011;16915;51.466;3.610;2023-04-06T02:12:28;55.28;;;31.13;;
30096;SDS011;16915;51.466;3.610;2023-04-06T02:14:53;56.80;;;30.80;;
30096;SDS011;16915;51.466;3.610;2023-04-06T02:17:19;54.85;;;30.45;;
30096;SDS011;16915;51.466;3.610;2023-04-06T02:19:45;55.30;;;30.23;;
30096;SDS011;16915;51.466;3.610;2023-04-06T02:22:11;54.67;;;30.00;;
30096;SDS011;16915;51.466;3.610;2023-04-06T02:24:36;55.53;;;30.10;;
30096;SDS011;16915;51.466;3.610;2023-04-06T02:27:02;56.75;;;29.48;;
30096;SDS011;16915;51.466;3.610;2023-04-06T02:29:27;57.60;;;29.45;;
30096;SDS011;16915;51.466;3.610;2023-04-06T02:31:53;59.28;;;29.92;;
30096;SDS011;16915;51.466;3.610;2023-04-06T02:34:19;56.22;;;28.58;;
30096;SDS011;16915;51.466;3.610;2023-04-06T02:36:44;58.72;;;29.90;;
30096;SDS011;16915;51.466;3.610;2023-04-06T02:39:10;51.88;;;29.02;;
30096;SDS011;16915;51.466;3.610;2023-04-06T02:41:36;53.65;;;29.42;;
30096;SDS011;16915;51.466;3.610;2023-04-06T02:44:02;47.53;;;27.23;;
30096;SDS011;16915;51.466;3.610;2023-04-06T02:46:28;49.13;;;27.45;;
30096;SDS011;16915;51.466;3.610;2023-04-06T02:48:53;49.83;;;27.48;;
30096;SDS011;16915;51.466;3.610;2023-04-06T02:51:19;51.08;;;27.38;;
30096;SDS011;16915;51.466;3.610;2023-04-06T02:53:45;49.05;;;26.08;;
30096;SDS011;16915;51.466;3.610;2023-04-06T02:56:11;44.60;;;24.30;;
30096;SDS011;16915;51.466;3.610;2023-04-06T02:58:36;45.75;;;24.55;;
30096;SDS011;16915;51.466;3.610;2023-04-06T03:01:02;47.63;;;25.02;;
30096;SDS011;16915;51.466;3.610;2023-04-06T03:03:28;49.15;;;26.73;;
30096;SDS011;16915;51.466;3.610;2023-04-06T03:05:55;50.85;;;26.63;;
30096;SDS011;16915;51.466;3.610;2023-04-06T03:08:23;48.92;;;25.90;;
30096;SDS011;16915;51.466;3.610;2023-04-06T03:10:49;49.40;;;26.02;;
30096;SDS011;16915;51.466;3.610;2023-04-06T03:13:15;51.15;;;26.85;;
30096;SDS011;16915;51.466;3.610;2023-04-06T03:15:40;49.90;;;26.33;;
30096;SDS011;16915;51.466;3.610;2023-04-06T03:18:06;49.90;;;25.05;;
30096;SDS011;16915;51.466;3.610;2023-04-06T03:20:31;46.90;;;25.10;;
30096;SDS011;16915;51.466;3.610;2023-04-06T03:22:57;42.15;;;23.80;;
30096;SDS011;16915;51.466;3.610;2023-04-06T03:25:23;47.13;;;23.83;;
30096;SDS011;16915;51.466;3.610;2023-04-06T03:27:48;39.50;;;21.50;;
30096;SDS011;16915;51.466;3.610;2023-04-06T03:30:14;45.58;;;21.90;;
30096;SDS011;16915;51.466;3.610;2023-04-06T03:32:42;37.97;;;21.13;;
30096;SDS011;16915;51.466;3.610;2023-04-06T03:35:08;41.63;;;22.45;;
30096;SDS011;16915;51.466;3.610;2023-04-06T03:37:34;42.67;;;21.45;;
30096;SDS011;16915;51.466;3.610;2023-04-06T03:40:00;35.90;;;20.83;;
30096;SDS011;16915;51.466;3.610;2023-04-06T03:42:26;39.15;;;20.90;;
30096;SDS011;16915;51.466;3.610;2023-04-06T03:44:51;37.78;;;21.15;;
30096;SDS011;16915;51.466;3.610;2023-04-06T03:47:17;38.33;;;20.17;;
30096;SDS011;16915;51.466;3.610;2023-04-06T03:49:42;38.10;;;20.45;;
30096;SDS011;16915;51.466;3.610;2023-04-06T03:52:08;38.42;;;20.13;;
30096;SDS011;16915;51.466;3.610;2023-04-06T03:54:34;38.17;;;21.38;;
30096;SDS011;16915;51.466;3.610;2023-04-06T03:57:00;39.22;;;20.95;;
30096;SDS011;16915;51.466;3.610;2023-04-06T03:59:26;35.35;;;19.30;;
30096;SDS011;16915;51.466;3.610;2023-04-06T04:01:51;34.72;;;20.35;;
30096;SDS011;16915;51.466;3.610;2023-04-06T04:04:17;39.75;;;20.98;;
30096;SDS011;16915;51.466;3.610;2023-04-06T04:06:42;41.30;;;20.48;;
30096;SDS011;16915;51.466;3.610;2023-04-06T04:09:08;39.42;;;21.58;;
30096;SDS011;16915;51.466;3.610;2023-04-06T04:11:34;42.22;;;21.95;;
30096;SDS011;16915;51.466;3.610;2023-04-06T04:13:59;36.08;;;19.88;;
30096;SDS011;16915;51.466;3.610;2023-04-06T04:16:25;39.55;;;21.02;;
30096;SDS011;16915;51.466;3.610;2023-04-06T04:18:50;36.97;;;20.50;;
30096;SDS011;16915;51.466;3.610;2023-04-06T04:21:16;43.17;;;20.85;;
30096;SDS011;16915;51.466;3.610;2023-04-06T04:23:42;42.88;;;21.52;;
30096;SDS011;16915;51.466;3.610;2023-04-06T04:26:07;32.88;;;20.40;;
30096;SDS011;16915;51.466;3.610;2023-04-06T04:28:33;37.20;;;20.45;;
30096;SDS011;16915;51.466;3.610;2023-04-06T04:30:58;35.47;;;19.75;;
30096;SDS011;16915;51.466;3.610;2023-04-06T04:33:24;35.97;;;19.90;;
30096;SDS011;16915;51.466;3.610;2023-04-06T04:35:50;39.28;;;20.55;;
30096;SDS011;16915;51.466;3.610;2023-04-06T04:38:15;36.92;;;20.90;;
30096;SDS011;16915;51.466;3.610;2023-04-06T04:40:41;35.75;;;19.67;;
30096;SDS011;16915;51.466;3.610;2023-04-06T04:43:06;34.95;;;20.05;;
30096;SDS011;16915;51.466;3.610;2023-04-06T04:45:32;41.10;;;21.65;;
30096;SDS011;16915;51.466;3.610;2023-04-06T04:47:57;36.95;;;20.75;;
30096;SDS011;16915;51.466;3.610;2023-04-06T04:50:23;44.13;;;21.58;;
30096;SDS011;16915;51.466;3.610;2023-04-06T04:52:49;41.95;;;21.30;;
30096;SDS011;16915;51.466;3.610;2023-04-06T04:55:14;40.85;;;20.27;;
30096;SDS011;16915;51.466;3.610;2023-04-06T04:57:40;37.35;;;21.25;;
30096;SDS011;16915;51.466;3.610;2023-04-06T05:00:06;40.38;;;20.67;;
30096;SDS011;16915;51.466;3.610;2023-04-06T05:02:32;36.40;;;20.83;;
30096;SDS011;16915;51.466;3.610;2023-04-06T05:04:57;38.03;;;20.17;;
30096;SDS011;16915;51.466;3.610;2023-04-06T05:07:23;43.13;;;20.52;;
30096;SDS011;16915;51.466;3.610;2023-04-06T05:09:48;33.83;;;20.38;;
30096;SDS011;16915;51.466;3.610;2023-04-06T05:12:14;39.10;;;20.33;;
30096;SDS011;16915;51.466;3.610;2023-04-06T05:14:40;39.42;;;19.20;;
30096;SDS011;16915;51.466;3.610;2023-04-06T05:17:05;37.08;;;19.88;;
30096;SDS011;16915;51.466;3.610;2023-04-06T05:19:31;38.33;;;20.08;;
30096;SDS011;16915;51.466;3.610;2023-04-06T05:21:56;35.05;;;19.63;;
30096;SDS011;16915;51.466;3.610;2023-04-06T05:24:22;33.47;;;18.77;;
30096;SDS011;16915;51.466;3.610;2023-04-06T05:26:48;32.17;;;19.00;;
30096;SDS011;16915;51.466;3.610;2023-04-06T05:29:14;32.80;;;17.73;;
30096;SDS011;16915;51.466;3.610;2023-04-06T05:31:41;31.15;;;17.52;;
30096;SDS011;16915;51.466;3.610;2023-04-06T05:34:07;33.17;;;16.92;;
30096;SDS011;16915;51.466;3.610;2023-04-06T05:36:34;31.67;;;17.42;;
30096;SDS011;16915;51.466;3.610;2023-04-06T05:39:00;29.15;;;16.30;;
30096;SDS011;16915;51.466;3.610;2023-04-06T05:41:25;24.55;;;15.15;;
30096;SDS011;16915;51.466;3.610;2023-04-06T05:43:51;24.92;;;15.25;;
30096;SDS011;16915;51.466;3.610;2023-04-06T05:46:16;19.98;;;13.50;;
30096;SDS011;16915;51.466;3.610;2023-04-06T05:48:43;25.90;;;13.55;;
30096;SDS011;16915;51.466;3.610;2023-04-06T05:51:10;29.63;;;15.40;;
30096;SDS011;16915;51.466;3.610;2023-04-06T05:53:35;24.90;;;14.52;;
30096;SDS011;16915;51.466;3.610;2023-04-06T05:56:01;24.60;;;13.68;;
30096;SDS011;16915;51.466;3.610;2023-04-06T05:58:27;24.48;;;13.88;;
30096;SDS011;16915;51.466;3.610;2023-04-06T06:00:57;22.27;;;12.60;;
30096;SDS011;16915;51.466;3.610;2023-04-06T06:03:26;22.08;;;13.05;;
30096;SDS011;16915;51.466;3.610;2023-04-06T06:05:51;23.27;;;12.60;;
30096;SDS011;16915;51.466;3.610;2023-04-06T06:08:17;19.45;;;12.27;;
30096;SDS011;16915;51.466;3.610;2023-04-06T06:10:43;27.00;;;13.40;;
30096;SDS011;16915;51.466;3.610;2023-04-06T06:13:08;24.52;;;12.50;;
30096;SDS011;16915;51.466;3.610;2023-04-06T06:15:34;28.25;;;12.90;;
30096;SDS011;16915;51.466;3.610;2023-04-06T06:18:00;22.92;;;12.40;;
30096;SDS011;16915;51.466;3.610;2023-04-06T06:20:26;17.40;;;10.57;;
30096;SDS011;16915;51.466;3.610;2023-04-06T06:22:52;19.50;;;10.80;;
30096;SDS011;16915;51.466;3.610;2023-04-06T06:25:18;25.33;;;10.25;;
30096;SDS011;16915;51.466;3.610;2023-04-06T06:27:43;17.35;;;9.32;;
30096;SDS011;16915;51.466;3.610;2023-04-06T06:30:09;20.70;;;10.20;;
30096;SDS011;16915;51.466;3.610;2023-04-06T06:32:35;17.20;;;9.15;;
30096;SDS011;16915;51.466;3.610;2023-04-06T06:35:00;12.57;;;8.40;;
30096;SDS011;16915;51.466;3.610;2023-04-06T06:37:26;14.20;;;8.45;;
30096;SDS011;16915;51.466;3.610;2023-04-06T06:39:52;13.50;;;8.05;;
30096;SDS011;16915;51.466;3.610;2023-04-06T06:42:17;11.88;;;7.55;;
30096;SDS011;16915;51.466;3.610;2023-04-06T06:44:43;11.75;;;7.72;;
30096;SDS011;16915;51.466;3.610;2023-04-06T06:47:08;12.65;;;6.85;;
30096;SDS011;16915;51.466;3.610;2023-04-06T06:49:34;12.40;;;7.28;;
30096;SDS011;16915;51.466;3.610;2023-04-06T06:52:00;9.45;;;6.85;;
30096;SDS011;16915;51.466;3.610;2023-04-06T06:54:25;11.55;;;7.50;;
30096;SDS011;16915;51.466;3.610;2023-04-06T06:56:51;12.27;;;8.05;;
30096;SDS011;16915;51.466;3.610;2023-04-06T06:59:16;10.35;;;6.85;;
30096;SDS011;16915;51.466;3.610;2023-04-06T07:01:42;11.85;;;7.05;;
30096;SDS011;16915;51.466;3.610;2023-04-06T07:04:07;9.20;;;6.35;;
30096;SDS011;16915;51.466;3.610;2023-04-06T07:06:36;12.13;;;7.55;;
30096;SDS011;16915;51.466;3.610;2023-04-06T07:09:02;9.88;;;6.85;;
30096;SDS011;16915;51.466;3.610;2023-04-06T07:11:30;11.65;;;7.00;;
30096;SDS011;16915;51.466;3.610;2023-04-06T07:13:56;12.43;;;7.43;;
30096;SDS011;16915;51.466;3.610;2023-04-06T07:16:21;12.75;;;6.95;;
30096;SDS011;16915;51.466;3.610;2023-04-06T07:18:47;13.75;;;8.57;;
30096;SDS011;16915;51.466;3.610;2023-04-06T07:21:13;15.13;;;7.95;;
30096;SDS011;16915;51.466;3.610;2023-04-06T07:23:38;16.23;;;8.02;;
30096;SDS011;16915;51.466;3.610;2023-04-06T07:26:04;11.30;;;8.05;;
30096;SDS011;16915;51.466;3.610;2023-04-06T07:28:29;13.13;;;9.15;;
30096;SDS011;16915;51.466;3.610;2023-04-06T07:30:55;15.93;;;9.80;;
30096;SDS011;16915;51.466;3.610;2023-04-06T07:33:21;15.00;;;8.57;;
30096;SDS011;16915;51.466;3.610;2023-04-06T07:35:46;15.20;;;8.63;;
30096;SDS011;16915;51.466;3.610;2023-04-06T07:38:12;13.73;;;8.25;;
30096;SDS011;16915;51.466;3.610;2023-04-06T07:40:38;13.00;;;7.97;;
30096;SDS011;16915;51.466;3.610;2023-04-06T07:43:03;15.13;;;8.73;;
30096;SDS011;16915;51.466;3.610;2023-04-06T07:45:29;16.20;;;9.05;;
30096;SDS011;16915;51.466;3.610;2023-04-06T07:47:55;16.58;;;9.10;;
30096;SDS011;16915;51.466;3.610;2023-04-06T07:50:20;16.58;;;9.85;;
30096;SDS011;16915;51.466;3.610;2023-04-06T07:52:46;16.50;;;9.63;;
30096;SDS011;16915;51.466;3.610;2023-04-06T07:55:12;16.23;;;9.07;;
30096;SDS011;16915;51.466;3.610;2023-04-06T07:57:37;15.00;;;8.32;;
30096;SDS011;16915;51.466;3.610;2023-04-06T08:00:03;17.25;;;9.05;;
30096;SDS011;16915;51.466;3.610;2023-04-06T08:02:29;16.83;;;8.68;;
30096;SDS011;16915;51.466;3.610;2023-04-06T08:04:58;18.15;;;9.00;;
30096;SDS011;16915;51.466;3.610;2023-04-06T08:07:23;20.20;;;10.00;;
30096;SDS011;16915;51.466;3.610;2023-04-06T08:09:49;17.33;;;9.18;;
30096;SDS011;16915;51.466;3.610;2023-04-06T08:12:15;14.25;;;7.80;;
30096;SDS011;16915;51.466;3.610;2023-04-06T08:14:40;14.23;;;8.00;;
30096;SDS011;16915;51.466;3.610;2023-04-06T08:17:06;12.88;;;7.78;;
30096;SDS011;16915;51.466;3.610;2023-04-06T08:19:31;17.55;;;9.10;;
30096;SDS011;16915;51.466;3.610;2023-04-06T08:21:57;14.27;;;8.55;;
30096;SDS011;16915;51.466;3.610;2023-04-06T08:24:23;14.95;;;8.57;;
30096;SDS011;16915;51.466;3.610;2023-04-06T08:26:48;20.40;;;8.77;;
30096;SDS011;16915;51.466;3.610;2023-04-06T08:29:14;14.27;;;8.27;;
30096;SDS011;16915;51.466;3.610;2023-04-06T08:31:39;13.98;;;7.88;;
30096;SDS011;16915;51.466;3.610;2023-04-06T08:34:05;19.50;;;7.88;;
30096;SDS011;16915;51.466;3.610;2023-04-06T08:36:31;16.55;;;9.02;;
30096;SDS011;16915;51.466;3.610;2023-04-06T08:38:57;19.10;;;8.63;;
30096;SDS011;16915;51.466;3.610;2023-04-06T08:41:23;14.90;;;7.90;;
30096;SDS011;16915;51.466;3.610;2023-04-06T08:43:52;19.60;;;8.60;;
30096;SDS011;16915;51.466;3.610;2023-04-06T08:46:24;18.85;;;8.65;;
30096;SDS011;16915;51.466;3.610;2023-04-06T08:48:59;19.77;;;9.35;;
30096;SDS011;16915;51.466;3.610;2023-04-06T08:51:26;19.65;;;8.88;;
30096;SDS011;16915;51.466;3.610;2023-04-06T08:53:53;24.27;;;10.27;;
30096;SDS011;16915;51.466;3.610;2023-04-06T08:56:21;20.77;;;10.27;;
30096;SDS011;16915;51.466;3.610;2023-04-06T08:58:50;21.98;;;10.18;;
30096;SDS011;16915;51.466;3.610;2023-04-06T09:01:17;18.67;;;9.68;;
30096;SDS011;16915;51.466;3.610;2023-04-06T09:03:46;19.23;;;10.00;;
30096;SDS011;16915;51.466;3.610;2023-04-06T09:06:14;19.42;;;10.05;;
30096;SDS011;16915;51.466;3.610;2023-04-06T09:08:41;15.98;;;9.57;;
30096;SDS011;16915;51.466;3.610;2023-04-06T09:11:07;18.10;;;9.80;;
30096;SDS011;16915;51.466;3.610;2023-04-06T09:16:18;19.00;;;9.77;;
30096;SDS011;16915;51.466;3.610;2023-04-06T09:18:44;14.20;;;8.85;;
30096;SDS011;16915;51.466;3.610;2023-04-06T09:21:10;16.17;;;9.68;;
30096;SDS011;16915;51.466;3.610;2023-04-06T09:23:36;17.25;;;10.45;;
30096;SDS011;16915;51.466;3.610;2023-04-06T09:26:04;17.05;;;10.55;;
30096;SDS011;16915;51.466;3.610;2023-04-06T09:28:40;14.88;;;9.80;;
30096;SDS011;16915;51.466;3.610;2023-04-06T09:31:26;16.77;;;9.57;;
30096;SDS011;16915;51.466;3.610;2023-04-06T09:33:57;19.08;;;11.00;;
30096;SDS011;16915;51.466;3.610;2023-04-06T09:36:33;19.83;;;10.48;;
30096;SDS011;16915;51.466;3.610;2023-04-06T09:39:01;15.93;;;10.25;;
30096;SDS011;16915;51.466;3.610;2023-04-06T09:41:28;19.88;;;11.13;;
30096;SDS011;16915;51.466;3.610;2023-04-06T09:44:07;19.90;;;10.77;;
30096;SDS011;16915;51.466;3.610;2023-04-06T09:46:42;20.10;;;11.18;;
30096;SDS011;16915;51.466;3.610;2023-04-06T09:49:11;20.27;;;11.65;;
30096;SDS011;16915;51.466;3.610;2023-04-06T09:51:38;20.40;;;11.50;;
30096;SDS011;16915;51.466;3.610;2023-04-06T09:54:15;20.77;;;11.55;;
30096;SDS011;16915;51.466;3.610;2023-04-06T09:59:13;20.05;;;11.88;;
30096;SDS011;16915;51.466;3.610;2023-04-06T10:01:44;22.60;;;13.82;;
30096;SDS011;16915;51.466;3.610;2023-04-06T10:07:16;20.65;;;13.15;;
30096;SDS011;16915;51.466;3.610;2023-04-06T10:09:43;28.02;;;14.88;;
30096;SDS011;16915;51.466;3.610;2023-04-06T10:12:11;27.40;;;14.50;;
30096;SDS011;16915;51.466;3.610;2023-04-06T10:14:38;28.27;;;14.75;;
30096;SDS011;16915;51.466;3.610;2023-04-06T10:17:06;25.45;;;14.88;;
30096;SDS011;16915;51.466;3.610;2023-04-06T10:22:32;26.98;;;14.48;;
30096;SDS011;16915;51.466;3.610;2023-04-06T10:25:04;24.55;;;15.02;;
30096;SDS011;16915;51.466;3.610;2023-04-06T10:27:30;29.52;;;15.00;;
30096;SDS011;16915;51.466;3.610;2023-04-06T10:30:01;24.67;;;14.07;;
30096;SDS011;16915;51.466;3.610;2023-04-06T10:32:38;24.55;;;13.85;;
30096;SDS011;16915;51.466;3.610;2023-04-06T10:35:09;28.42;;;15.60;;
30096;SDS011;16915;51.466;3.610;2023-04-06T10:37:50;26.75;;;15.75;;
30096;SDS011;16915;51.466;3.610;2023-04-06T10:40:27;27.15;;;15.23;;
30096;SDS011;16915;51.466;3.610;2023-04-06T10:42:53;27.38;;;15.38;;
30096;SDS011;16915;51.466;3.610;2023-04-06T10:45:23;27.73;;;15.07;;
30096;SDS011;16915;51.466;3.610;2023-04-06T10:47:52;27.73;;;16.30;;
30096;SDS011;16915;51.466;3.610;2023-04-06T10:50:18;26.60;;;15.27;;
30096;SDS011;16915;51.466;3.610;2023-04-06T10:52:45;27.77;;;15.88;;
30096;SDS011;16915;51.466;3.610;2023-04-06T10:55:13;29.90;;;15.88;;
30096;SDS011;16915;51.466;3.610;2023-04-06T10:57:40;30.42;;;16.52;;
30096;SDS011;16915;51.466;3.610;2023-04-06T11:00:07;25.35;;;15.63;;
30096;SDS011;16915;51.466;3.610;2023-04-06T11:02:34;32.55;;;16.63;;
30096;SDS011;16915;51.466;3.610;2023-04-06T11:05:02;27.13;;;15.38;;
30096;SDS011;16915;51.466;3.610;2023-04-06T11:07:28;32.72;;;16.55;;
30096;SDS011;16915;51.466;3.610;2023-04-06T11:09:55;25.77;;;14.60;;
30096;SDS011;16915;51.466;3.610;2023-04-06T11:12:22;26.40;;;14.60;;
30096;SDS011;16915;51.466;3.610;2023-04-06T11:15:01;24.95;;;14.75;;
30096;SDS011;16915;51.466;3.610;2023-04-06T11:17:31;25.40;;;15.05;;
30096;SDS011;16915;51.466;3.610;2023-04-06T11:19:58;19.67;;;13.23;;
30096;SDS011;16915;51.466;3.610;2023-04-06T11:22:25;27.40;;;14.93;;
30096;SDS011;16915;51.466;3.610;2023-04-06T11:24:51;24.17;;;14.73;;
30096;SDS011;16915;51.466;3.610;2023-04-06T11:27:17;26.33;;;14.57;;
30096;SDS011;16915;51.466;3.610;2023-04-06T11:29:44;22.65;;;14.05;;
30096;SDS011;16915;51.466;3.610;2023-04-06T11:32:11;20.08;;;12.23;;
30096;SDS011;16915;51.466;3.610;2023-04-06T11:34:44;20.85;;;13.18;;
30096;SDS011;16915;51.466;3.610;2023-04-06T11:37:12;24.13;;;12.98;;
30096;SDS011;16915;51.466;3.610;2023-04-06T11:39:39;21.80;;;13.68;;
30096;SDS011;16915;51.466;3.610;2023-04-06T11:42:06;28.88;;;17.23;;
30096;SDS011;16915;51.466;3.610;2023-04-06T11:47:02;22.55;;;13.15;;
30096;SDS011;16915;51.466;3.610;2023-04-06T11:49:29;18.85;;;13.85;;
30096;SDS011;16915;51.466;3.610;2023-04-06T11:51:55;17.85;;;11.02;;
30096;SDS011;16915;51.466;3.610;2023-04-06T11:54:35;17.25;;;11.15;;
30096;SDS011;16915;51.466;3.610;2023-04-06T11:57:05;19.02;;;12.32;;
30096;SDS011;16915;51.466;3.610;2023-04-06T11:59:31;19.50;;;11.68;;
30096;SDS011;16915;51.466;3.610;2023-04-06T12:01:57;17.58;;;11.38;;
30096;SDS011;16915;51.466;3.610;2023-04-06T12:04:23;17.80;;;11.88;;
30096;SDS011;16915;51.466;3.610;2023-04-06T12:06:49;19.58;;;12.35;;
30096;SDS011;16915;51.466;3.610;2023-04-06T12:09:15;17.95;;;11.30;;
30096;SDS011;16915;51.466;3.610;2023-04-06T12:11:42;16.50;;;10.63;;
30096;SDS011;16915;51.466;3.610;2023-04-06T12:14:08;15.80;;;10.20;;
30096;SDS011;16915;51.466;3.610;2023-04-06T12:16:34;14.40;;;9.50;;
30096;SDS011;16915;51.466;3.610;2023-04-06T12:19:00;14.52;;;9.68;;
30096;SDS011;16915;51.466;3.610;2023-04-06T12:21:29;13.32;;;9.32;;
30096;SDS011;16915;51.466;3.610;2023-04-06T12:23:56;14.32;;;9.43;;
30096;SDS011;16915;51.466;3.610;2023-04-06T12:26:25;15.27;;;10.00;;
30096;SDS011;16915;51.466;3.610;2023-04-06T12:28:52;15.40;;;9.90;;
30096;SDS011;16915;51.466;3.610;2023-04-06T12:31:18;16.13;;;11.40;;
30096;SDS011;16915;51.466;3.610;2023-04-06T12:33:48;23.15;;;14.88;;
30096;SDS011;16915;51.466;3.610;2023-04-06T12:36:15;23.33;;;15.00;;
30096;SDS011;16915;51.466;3.610;2023-04-06T12:38:49;27.25;;;14.63;;
30096;SDS011;16915;51.466;3.610;2023-04-06T12:41:18;19.15;;;12.10;;
30096;SDS011;16915;51.466;3.610;2023-04-06T12:43:44;18.13;;;11.98;;
30096;SDS011;16915;51.466;3.610;2023-04-06T12:46:10;18.10;;;11.63;;
30096;SDS011;16915;51.466;3.610;2023-04-06T12:48:36;22.42;;;12.07;;
30096;SDS011;16915;51.466;3.610;2023-04-06T12:51:03;15.05;;;11.30;;
30096;SDS011;16915;51.466;3.610;2023-04-06T12:53:30;18.33;;;12.15;;
30096;SDS011;16915;51.466;3.610;2023-04-06T12:55:57;19.42;;;13.45;;
30096;SDS011;16915;51.466;3.610;2023-04-06T12:58:23;18.27;;;12.95;;
30096;SDS011;16915;51.466;3.610;2023-04-06T13:00:51;20.27;;;14.50;;
30096;SDS011;16915;51.466;3.610;2023-04-06T13:03:18;21.80;;;13.75;;
30096;SDS011;16915;51.466;3.610;2023-04-06T13:05:44;23.15;;;14.88;;
30096;SDS011;16915;51.466;3.610;2023-04-06T13:08:11;23.63;;;14.55;;
30096;SDS011;16915;51.466;3.610;2023-04-06T13:10:37;22.05;;;14.48;;
30096;SDS011;16915;51.466;3.610;2023-04-06T13:13:03;23.33;;;16.13;;
30096;SDS011;16915;51.466;3.610;2023-04-06T13:15:28;26.38;;;16.42;;
30096;SDS011;16915;51.466;3.610;2023-04-06T13:17:54;26.45;;;15.45;;
30096;SDS011;16915;51.466;3.610;2023-04-06T13:20:20;26.25;;;16.13;;
30096;SDS011;16915;51.466;3.610;2023-04-06T13:22:45;32.42;;;18.60;;
30096;SDS011;16915;51.466;3.610;2023-04-06T13:25:11;33.67;;;20.30;;
30096;SDS011;16915;51.466;3.610;2023-04-06T13:27:37;38.28;;;22.60;;
30096;SDS011;16915;51.466;3.610;2023-04-06T13:30:03;30.90;;;19.77;;
30096;SDS011;16915;51.466;3.610;2023-04-06T13:32:29;27.83;;;18.33;;
30096;SDS011;16915;51.466;3.610;2023-04-06T13:34:55;32.03;;;17.77;;
30096;SDS011;16915;51.466;3.610;2023-04-06T13:37:21;32.30;;;18.33;;
30096;SDS011;16915;51.466;3.610;2023-04-06T13:39:47;35.97;;;18.98;;
30096;SDS011;16915;51.466;3.610;2023-04-06T13:42:12;29.98;;;18.38;;
30096;SDS011;16915;51.466;3.610;2023-04-06T13:44:38;29.00;;;18.50;;
30096;SDS011;16915;51.466;3.610;2023-04-06T13:47:03;30.63;;;18.48;;
30096;SDS011;16915;51.466;3.610;2023-04-06T13:49:29;29.17;;;19.52;;
30096;SDS011;16915;51.466;3.610;2023-04-06T13:51:55;28.48;;;18.48;;
30096;SDS011;16915;51.466;3.610;2023-04-06T13:54:21;27.15;;;18.63;;
30096;SDS011;16915;51.466;3.610;2023-04-06T13:56:46;30.55;;;18.65;;
30096;SDS011;16915;51.466;3.610;2023-04-06T13:59:12;33.70;;;18.70;;
30096;SDS011;16915;51.466;3.610;2023-04-06T14:01:37;31.42;;;18.95;;
30096;SDS011;16915;51.466;3.610;2023-04-06T14:04:03;29.52;;;19.30;;
30096;SDS011;16915;51.466;3.610;2023-04-06T14:06:28;31.38;;;20.25;;
30096;SDS011;16915;51.466;3.610;2023-04-06T14:08:54;33.35;;;19.10;;
30096;SDS011;16915;51.466;3.610;2023-04-06T14:11:20;33.50;;;18.92;;
30096;SDS011;16915;51.466;3.610;2023-04-06T14:13:46;34.67;;;19.83;;
30096;SDS011;16915;51.466;3.610;2023-04-06T14:16:11;33.28;;;19.70;;
30096;SDS011;16915;51.466;3.610;2023-04-06T14:18:37;31.92;;;18.35;;
30096;SDS011;16915;51.466;3.610;2023-04-06T14:21:03;34.30;;;19.52;;
30096;SDS011;16915;51.466;3.610;2023-04-06T14:23:28;33.08;;;19.38;;
30096;SDS011;16915;51.466;3.610;2023-04-06T14:26:04;32.72;;;19.33;;
30096;SDS011;16915;51.466;3.610;2023-04-06T14:28:32;31.92;;;19.58;;
30096;SDS011;16915;51.466;3.610;2023-04-06T14:31:01;28.17;;;18.27;;
30096;SDS011;16915;51.466;3.610;2023-04-06T14:33:34;27.15;;;17.98;;